sensor_id;sensor_type;location;lat;lon;timestamp;temperature;humidity
46139;DHT22;32398;49.112;8.598;2023-03-01T00:00:07;2.00;73.30
46139;DHT22;32398;49.112;8.598;2023-03-01T00:02:34;1.90;73.30
46139;DHT22;32398;49.112;8.598;2023-03-01T00:05:00;1.90;73.40
46139;DHT22;32398;49.112;8.598;2023-03-01T00:07:27;1.90;73.50
46139;DHT22;32398;49.112;8.598;2023-03-01T00:09:53;1.90;73.50
46139;DHT22;32398;49.112;8.598;2023-03-01T00:12:20;1.90;73.50
46139;DHT22;32398;49.112;8.598;2023-03-01T00:14:46;1.90;73.60
46139;DHT22;32398;49.112;8.598;2023-03-01T00:17:14;1.90;73.60
46139;DHT22;32398;49.112;8.598;2023-03-01T00:19:41;1.80;73.60
46139;DHT22;32398;49.112;8.598;2023-03-01T00:22:07;1.80;73.60
46139;DHT22;32398;49.112;8.598;2023-03-01T00:24:34;1.80;73.70
46139;DHT22;32398;49.112;8.598;2023-03-01T00:27:00;1.80;73.80
46139;DHT22;32398;49.112;8.598;2023-03-01T00:29:27;1.80;73.80
46139;DHT22;32398;49.112;8.598;2023-03-01T00:31:53;1.80;73.80
46139;DHT22;32398;49.112;8.598;2023-03-01T00:34:21;1.80;73.90
46139;DHT22;32398;49.112;8.598;2023-03-01T00:36:48;1.80;74.00
46139;DHT22;32398;49.112;8.598;2023-03-01T00:39:14;1.70;73.90
46139;DHT22;32398;49.112;8.598;2023-03-01T00:41:41;1.70;74.00
46139;DHT22;32398;49.112;8.598;2023-03-01T00:44:08;1.70;74.10
46139;DHT22;32398;49.112;8.598;2023-03-01T00:46:35;1.70;74.10
46139;DHT22;32398;49.112;8.598;2023-03-01T00:49:01;1.70;74.10
46139;DHT22;32398;49.112;8.598;2023-03-01T00:51:31;1.70;74.20
46139;DHT22;32398;49.112;8.598;2023-03-01T00:53:58;1.70;74.20
46139;DHT22;32398;49.112;8.598;2023-03-01T00:56:25;1.60;74.30
46139;DHT22;32398;49.112;8.598;2023-03-01T00:58:52;1.60;74.30
46139;DHT22;32398;49.112;8.598;2023-03-01T01:01:19;1.60;74.40
46139;DHT22;32398;49.112;8.598;2023-03-01T01:03:47;1.60;74.40
46139;DHT22;32398;49.112;8.598;2023-03-01T01:06:17;1.60;74.40
46139;DHT22;32398;49.112;8.598;2023-03-01T01:08:45;1.60;74.50
46139;DHT22;32398;49.112;8.598;2023-03-01T01:11:12;1.60;74.50
46139;DHT22;32398;49.112;8.598;2023-03-01T01:13:38;1.50;74.50
46139;DHT22;32398;49.112;8.598;2023-03-01T01:16:05;1.50;74.60
46139;DHT22;32398;49.112;8.598;2023-03-01T01:18:32;1.50;74.70
46139;DHT22;32398;49.112;8.598;2023-03-01T01:21:02;1.50;74.70
46139;DHT22;32398;49.112;8.598;2023-03-01T01:23:29;1.50;74.70
46139;DHT22;32398;49.112;8.598;2023-03-01T01:25:57;1.40;74.70
46139;DHT22;32398;49.112;8.598;2023-03-01T01:28:23;1.50;74.80
46139;DHT22;32398;49.112;8.598;2023-03-01T01:30:50;1.40;74.80
46139;DHT22;32398;49.112;8.598;2023-03-01T01:33:16;1.40;74.90
46139;DHT22;32398;49.112;8.598;2023-03-01T01:35:44;1.40;74.90
46139;DHT22;32398;49.112;8.598;2023-03-01T01:38:11;1.40;74.90
46139;DHT22;32398;49.112;8.598;2023-03-01T01:40:42;1.40;75.00
46139;DHT22;32398;49.112;8.598;2023-03-01T01:43:12;1.40;75.10
46139;DHT22;32398;49.112;8.598;2023-03-01T01:45:42;1.40;75.10
46139;DHT22;32398;49.112;8.598;2023-03-01T01:48:10;1.40;75.10
46139;DHT22;32398;49.112;8.598;2023-03-01T01:50:39;1.30;75.10
46139;DHT22;32398;49.112;8.598;2023-03-01T01:53:07;1.30;75.10
46139;DHT22;32398;49.112;8.598;2023-03-01T01:55:35;1.30;75.20
46139;DHT22;32398;49.112;8.598;2023-03-01T01:58:02;1.30;75.30
46139;DHT22;32398;49.112;8.598;2023-03-01T02:00:32;1.30;75.30
46139;DHT22;32398;49.112;8.598;2023-03-01T02:02:59;1.30;75.50
46139;DHT22;32398;49.112;8.598;2023-03-01T02:05:28;1.30;75.40
46139;DHT22;32398;49.112;8.598;2023-03-01T02:07:57;1.30;75.50
46139;DHT22;32398;49.112;8.598;2023-03-01T02:10:24;1.30;75.50
46139;DHT22;32398;49.112;8.598;2023-03-01T02:12:51;1.20;75.50
46139;DHT22;32398;49.112;8.598;2023-03-01T02:15:18;1.20;75.50
46139;DHT22;32398;49.112;8.598;2023-03-01T02:17:45;1.20;75.60
46139;DHT22;32398;49.112;8.598;2023-03-01T02:20:15;1.20;75.60
46139;DHT22;32398;49.112;8.598;2023-03-01T02:22:45;1.20;75.60
46139;DHT22;32398;49.112;8.598;2023-03-01T02:25:18;1.10;75.60
46139;DHT22;32398;49.112;8.598;2023-03-01T02:27:47;1.20;75.70
46139;DHT22;32398;49.112;8.598;2023-03-01T02:30:16;1.10;75.70
46139;DHT22;32398;49.112;8.598;2023-03-01T02:32:44;1.10;75.70
46139;DHT22;32398;49.112;8.598;2023-03-01T02:35:10;1.10;75.80
46139;DHT22;32398;49.112;8.598;2023-03-01T02:37:38;1.10;75.80
46139;DHT22;32398;49.112;8.598;2023-03-01T02:40:06;1.10;75.80
46139;DHT22;32398;49.112;8.598;2023-03-01T02:42:38;1.10;75.90
46139;DHT22;32398;49.112;8.598;2023-03-01T02:45:07;1.00;75.90
46139;DHT22;32398;49.112;8.598;2023-03-01T02:47:36;1.10;75.90
46139;DHT22;32398;49.112;8.598;2023-03-01T02:50:08;1.10;76.00
46139;DHT22;32398;49.112;8.598;2023-03-01T02:52:40;1.00;76.00
46139;DHT22;32398;49.112;8.598;2023-03-01T02:55:10;1.00;76.00
46139;DHT22;32398;49.112;8.598;2023-03-01T02:57:38;1.00;76.00
46139;DHT22;32398;49.112;8.598;2023-03-01T03:00:07;1.00;76.10
46139;DHT22;32398;49.112;8.598;2023-03-01T03:02:35;1.00;76.10
46139;DHT22;32398;49.112;8.598;2023-03-01T03:05:07;0.90;76.10
46139;DHT22;32398;49.112;8.598;2023-03-01T03:07:34;0.90;76.20
46139;DHT22;32398;49.112;8.598;2023-03-01T03:10:01;0.90;76.20
46139;DHT22;32398;49.112;8.598;2023-03-01T03:12:28;0.90;76.30
46139;DHT22;32398;49.112;8.598;2023-03-01T03:14:55;0.90;76.30
46139;DHT22;32398;49.112;8.598;2023-03-01T03:17:21;0.90;76.40
46139;DHT22;32398;49.112;8.598;2023-03-01T03:19:48;0.80;76.40
46139;DHT22;32398;49.112;8.598;2023-03-01T03:22:16;0.80;76.40
46139;DHT22;32398;49.112;8.598;2023-03-01T03:24:42;0.90;76.50
46139;DHT22;32398;49.112;8.598;2023-03-01T03:27:09;0.90;76.50
46139;DHT22;32398;49.112;8.598;2023-03-01T03:29:35;0.80;76.50
46139;DHT22;32398;49.112;8.598;2023-03-01T03:32:02;0.80;76.50
46139;DHT22;32398;49.112;8.598;2023-03-01T03:34:28;0.80;76.60
46139;DHT22;32398;49.112;8.598;2023-03-01T03:36:55;0.80;76.60
46139;DHT22;32398;49.112;8.598;2023-03-01T03:39:26;0.80;76.60
46139;DHT22;32398;49.112;8.598;2023-03-01T03:41:53;0.80;76.70
46139;DHT22;32398;49.112;8.598;2023-03-01T03:44:19;0.70;76.70
46139;DHT22;32398;49.112;8.598;2023-03-01T03:46:46;0.70;76.70
46139;DHT22;32398;49.112;8.598;2023-03-01T03:49:12;0.70;76.70
46139;DHT22;32398;49.112;8.598;2023-03-01T03:51:39;0.70;76.80
46139;DHT22;32398;49.112;8.598;2023-03-01T03:54:06;0.70;76.80
46139;DHT22;32398;49.112;8.598;2023-03-01T03:56:33;0.70;76.80
46139;DHT22;32398;49.112;8.598;2023-03-01T03:59:00;0.70;76.80
46139;DHT22;32398;49.112;8.598;2023-03-01T04:01:26;0.70;76.90
46139;DHT22;32398;49.112;8.598;2023-03-01T04:03:53;0.70;76.90
46139;DHT22;32398;49.112;8.598;2023-03-01T04:06:20;0.70;76.90
46139;DHT22;32398;49.112;8.598;2023-03-01T04:08:47;0.60;76.90
46139;DHT22;32398;49.112;8.598;2023-03-01T04:11:16;0.60;77.00
46139;DHT22;32398;49.112;8.598;2023-03-01T04:13:56;0.60;77.00
46139;DHT22;32398;49.112;8.598;2023-03-01T04:16:23;0.60;77.00
46139;DHT22;32398;49.112;8.598;2023-03-01T04:18:50;0.60;77.00
46139;DHT22;32398;49.112;8.598;2023-03-01T04:21:17;0.60;77.10
46139;DHT22;32398;49.112;8.598;2023-03-01T04:23:45;0.60;77.10
46139;DHT22;32398;49.112;8.598;2023-03-01T04:26:11;0.50;77.10
46139;DHT22;32398;49.112;8.598;2023-03-01T04:28:39;0.50;77.10
46139;DHT22;32398;49.112;8.598;2023-03-01T04:31:09;0.50;77.20
46139;DHT22;32398;49.112;8.598;2023-03-01T04:33:39;0.50;77.20
46139;DHT22;32398;49.112;8.598;2023-03-01T04:36:07;0.50;77.20
46139;DHT22;32398;49.112;8.598;2023-03-01T04:38:35;0.50;77.20
46139;DHT22;32398;49.112;8.598;2023-03-01T04:41:02;0.50;77.30
46139;DHT22;32398;49.112;8.598;2023-03-01T04:43:29;0.50;77.30
46139;DHT22;32398;49.112;8.598;2023-03-01T04:45:59;0.50;77.30
46139;DHT22;32398;49.112;8.598;2023-03-01T04:48:29;0.50;77.30
46139;DHT22;32398;49.112;8.598;2023-03-01T04:50:55;0.50;77.30
46139;DHT22;32398;49.112;8.598;2023-03-01T04:53:22;0.50;77.40
46139;DHT22;32398;49.112;8.598;2023-03-01T04:55:48;0.40;77.30
46139;DHT22;32398;49.112;8.598;2023-03-01T04:58:15;0.40;77.40
46139;DHT22;32398;49.112;8.598;2023-03-01T05:00:41;0.40;77.40
46139;DHT22;32398;49.112;8.598;2023-03-01T05:03:08;0.40;78.20
46139;DHT22;32398;49.112;8.598;2023-03-01T05:05:37;0.40;77.50
46139;DHT22;32398;49.112;8.598;2023-03-01T05:08:05;0.40;77.50
46139;DHT22;32398;49.112;8.598;2023-03-01T05:10:32;0.40;77.50
46139;DHT22;32398;49.112;8.598;2023-03-01T05:13:00;0.30;77.50
46139;DHT22;32398;49.112;8.598;2023-03-01T05:15:28;0.30;77.50
46139;DHT22;32398;49.112;8.598;2023-03-01T05:17:57;0.30;77.50
46139;DHT22;32398;49.112;8.598;2023-03-01T05:20:24;0.30;77.60
46139;DHT22;32398;49.112;8.598;2023-03-01T05:22:54;0.30;77.60
46139;DHT22;32398;49.112;8.598;2023-03-01T05:25:21;0.30;77.60
46139;DHT22;32398;49.112;8.598;2023-03-01T05:27:48;0.30;77.70
46139;DHT22;32398;49.112;8.598;2023-03-01T05:30:15;0.30;77.70
46139;DHT22;32398;49.112;8.598;2023-03-01T05:32:43;0.30;77.70
46139;DHT22;32398;49.112;8.598;2023-03-01T05:35:10;0.20;77.70
46139;DHT22;32398;49.112;8.598;2023-03-01T05:37:39;0.20;77.70
46139;DHT22;32398;49.112;8.598;2023-03-01T05:40:07;0.20;77.80
46139;DHT22;32398;49.112;8.598;2023-03-01T05:42:41;0.20;77.80
46139;DHT22;32398;49.112;8.598;2023-03-01T05:45:08;0.20;77.80
46139;DHT22;32398;49.112;8.598;2023-03-01T05:47:35;0.20;77.80
46139;DHT22;32398;49.112;8.598;2023-03-01T05:50:02;0.20;77.80
46139;DHT22;32398;49.112;8.598;2023-03-01T05:52:28;0.20;77.90
46139;DHT22;32398;49.112;8.598;2023-03-01T05:54:55;0.20;77.90
46139;DHT22;32398;49.112;8.598;2023-03-01T05:57:23;0.20;78.00
46139;DHT22;32398;49.112;8.598;2023-03-01T05:59:49;0.10;78.00
46139;DHT22;32398;49.112;8.598;2023-03-01T06:02:16;0.10;78.00
46139;DHT22;32398;49.112;8.598;2023-03-01T06:04:42;0.10;78.10
46139;DHT22;32398;49.112;8.598;2023-03-01T06:07:09;0.10;78.10
46139;DHT22;32398;49.112;8.598;2023-03-01T06:09:35;0.10;78.20
46139;DHT22;32398;49.112;8.598;2023-03-01T06:12:02;0.10;78.30
46139;DHT22;32398;49.112;8.598;2023-03-01T06:14:30;0.10;78.30
46139;DHT22;32398;49.112;8.598;2023-03-01T06:16:57;0.10;78.40
46139;DHT22;32398;49.112;8.598;2023-03-01T06:19:23;0.10;78.40
46139;DHT22;32398;49.112;8.598;2023-03-01T06:21:50;0.10;78.40
46139;DHT22;32398;49.112;8.598;2023-03-01T06:24:16;0.00;78.30
46139;DHT22;32398;49.112;8.598;2023-03-01T06:26:43;0.10;78.40
46139;DHT22;32398;49.112;8.598;2023-03-01T06:29:09;0.00;78.40
46139;DHT22;32398;49.112;8.598;2023-03-01T06:31:37;0.00;78.40
46139;DHT22;32398;49.112;8.598;2023-03-01T06:34:04;0.00;78.40
46139;DHT22;32398;49.112;8.598;2023-03-01T06:36:30;0.00;78.40
46139;DHT22;32398;49.112;8.598;2023-03-01T06:38:57;0.00;78.40
46139;DHT22;32398;49.112;8.598;2023-03-01T06:41:23;0.00;78.50
46139;DHT22;32398;49.112;8.598;2023-03-01T06:43:50;0.00;78.50
46139;DHT22;32398;49.112;8.598;2023-03-01T06:46:17;0.00;78.50
46139;DHT22;32398;49.112;8.598;2023-03-01T06:48:45;0.00;78.60
46139;DHT22;32398;49.112;8.598;2023-03-01T06:51:12;0.00;78.60
46139;DHT22;32398;49.112;8.598;2023-03-01T06:53:38;0.00;78.60
46139;DHT22;32398;49.112;8.598;2023-03-01T06:56:05;0.00;78.60
46139;DHT22;32398;49.112;8.598;2023-03-01T06:58:32;0.00;78.80
46139;DHT22;32398;49.112;8.598;2023-03-01T07:00:58;-0.10;78.70
46139;DHT22;32398;49.112;8.598;2023-03-01T07:03:25;0.00;78.80
46139;DHT22;32398;49.112;8.598;2023-03-01T07:05:52;-0.10;78.70
46139;DHT22;32398;49.112;8.598;2023-03-01T07:08:19;-0.10;78.70
46139;DHT22;32398;49.112;8.598;2023-03-01T07:10:45;0.00;78.80
46139;DHT22;32398;49.112;8.598;2023-03-01T07:13:12;-0.10;78.80
46139;DHT22;32398;49.112;8.598;2023-03-01T07:15:39;0.00;78.80
46139;DHT22;32398;49.112;8.598;2023-03-01T07:18:06;-0.10;78.80
46139;DHT22;32398;49.112;8.598;2023-03-01T07:20:32;-0.10;78.80
46139;DHT22;32398;49.112;8.598;2023-03-01T07:23:00;-0.10;78.80
46139;DHT22;32398;49.112;8.598;2023-03-01T07:25:27;-0.10;78.80
46139;DHT22;32398;49.112;8.598;2023-03-01T07:27:53;-0.10;78.80
46139;DHT22;32398;49.112;8.598;2023-03-01T07:30:20;-0.10;78.80
46139;DHT22;32398;49.112;8.598;2023-03-01T07:32:47;-0.10;78.80
46139;DHT22;32398;49.112;8.598;2023-03-01T07:35:13;0.00;78.80
46139;DHT22;32398;49.112;8.598;2023-03-01T07:37:41;-0.10;78.80
46139;DHT22;32398;49.112;8.598;2023-03-01T07:40:09;-0.10;78.70
46139;DHT22;32398;49.112;8.598;2023-03-01T07:42:36;0.00;78.80
46139;DHT22;32398;49.112;8.598;2023-03-01T07:45:03;-0.10;78.70
46139;DHT22;32398;49.112;8.598;2023-03-01T07:47:29;0.00;78.70
46139;DHT22;32398;49.112;8.598;2023-03-01T07:49:56;0.00;78.80
46139;DHT22;32398;49.112;8.598;2023-03-01T07:52:22;0.00;78.80
46139;DHT22;32398;49.112;8.598;2023-03-01T07:54:49;0.00;78.80
46139;DHT22;32398;49.112;8.598;2023-03-01T07:57:17;0.00;78.80
46139;DHT22;32398;49.112;8.598;2023-03-01T07:59:43;-0.10;78.80
46139;DHT22;32398;49.112;8.598;2023-03-01T08:02:10;0.00;78.90
46139;DHT22;32398;49.112;8.598;2023-03-01T08:04:37;0.00;78.90
46139;DHT22;32398;49.112;8.598;2023-03-01T08:07:04;0.00;78.90
46139;DHT22;32398;49.112;8.598;2023-03-01T08:09:34;-0.10;79.00
46139;DHT22;32398;49.112;8.598;2023-03-01T08:12:00;0.00;79.10
46139;DHT22;32398;49.112;8.598;2023-03-01T08:14:28;0.00;79.00
46139;DHT22;32398;49.112;8.598;2023-03-01T08:16:55;0.00;79.00
46139;DHT22;32398;49.112;8.598;2023-03-01T08:19:22;0.00;79.00
46139;DHT22;32398;49.112;8.598;2023-03-01T08:21:48;0.00;79.00
46139;DHT22;32398;49.112;8.598;2023-03-01T08:24:15;0.00;79.00
46139;DHT22;32398;49.112;8.598;2023-03-01T08:26:41;0.00;79.00
46139;DHT22;32398;49.112;8.598;2023-03-01T08:29:08;0.00;79.00
46139;DHT22;32398;49.112;8.598;2023-03-01T08:31:36;0.10;79.10
46139;DHT22;32398;49.112;8.598;2023-03-01T08:34:04;0.10;79.00
46139;DHT22;32398;49.112;8.598;2023-03-01T08:36:31;0.10;79.00
46139;DHT22;32398;49.112;8.598;2023-03-01T08:38:58;0.10;79.10
46139;DHT22;32398;49.112;8.598;2023-03-01T08:41:25;0.10;79.00
46139;DHT22;32398;49.112;8.598;2023-03-01T08:43:52;0.10;79.00
46139;DHT22;32398;49.112;8.598;2023-03-01T08:46:23;0.20;79.00
46139;DHT22;32398;49.112;8.598;2023-03-01T08:48:51;0.20;79.00
46139;DHT22;32398;49.112;8.598;2023-03-01T08:51:18;0.20;78.90
46139;DHT22;32398;49.112;8.598;2023-03-01T08:53:45;0.20;78.90
46139;DHT22;32398;49.112;8.598;2023-03-01T08:56:12;0.30;78.90
46139;DHT22;32398;49.112;8.598;2023-03-01T08:58:39;0.30;78.80
46139;DHT22;32398;49.112;8.598;2023-03-01T09:01:06;0.30;79.50
46139;DHT22;32398;49.112;8.598;2023-03-01T09:03:33;0.40;78.70
46139;DHT22;32398;49.112;8.598;2023-03-01T09:06:01;0.40;78.50
46139;DHT22;32398;49.112;8.598;2023-03-01T09:08:28;0.40;78.40
46139;DHT22;32398;49.112;8.598;2023-03-01T09:10:55;0.50;78.30
46139;DHT22;32398;49.112;8.598;2023-03-01T09:13:22;0.50;78.20
46139;DHT22;32398;49.112;8.598;2023-03-01T09:15:50;0.50;78.10
46139;DHT22;32398;49.112;8.598;2023-03-01T09:18:17;0.60;78.10
46139;DHT22;32398;49.112;8.598;2023-03-01T09:20:43;0.60;78.10
46139;DHT22;32398;49.112;8.598;2023-03-01T09:23:11;0.70;78.10
46139;DHT22;32398;49.112;8.598;2023-03-01T09:25:37;0.70;78.00
46139;DHT22;32398;49.112;8.598;2023-03-01T09:28:04;0.70;78.00
46139;DHT22;32398;49.112;8.598;2023-03-01T09:30:30;0.80;78.00
46139;DHT22;32398;49.112;8.598;2023-03-01T09:32:57;0.80;77.90
46139;DHT22;32398;49.112;8.598;2023-03-01T09:35:25;0.80;77.90
46139;DHT22;32398;49.112;8.598;2023-03-01T09:37:51;0.90;77.80
46139;DHT22;32398;49.112;8.598;2023-03-01T09:40:20;0.90;77.60
46139;DHT22;32398;49.112;8.598;2023-03-01T09:42:48;1.00;77.50
46139;DHT22;32398;49.112;8.598;2023-03-01T09:45:20;1.10;77.30
46139;DHT22;32398;49.112;8.598;2023-03-01T09:47:50;1.10;77.00
46139;DHT22;32398;49.112;8.598;2023-03-01T09:50:17;1.20;76.70
46139;DHT22;32398;49.112;8.598;2023-03-01T09:52:46;1.30;76.60
46139;DHT22;32398;49.112;8.598;2023-03-01T09:55:15;1.30;76.30
46139;DHT22;32398;49.112;8.598;2023-03-01T09:57:46;1.50;76.20
46139;DHT22;32398;49.112;8.598;2023-03-01T10:00:20;1.50;76.00
46139;DHT22;32398;49.112;8.598;2023-03-01T10:02:49;1.60;75.80
46139;DHT22;32398;49.112;8.598;2023-03-01T10:08:05;1.80;75.50
46139;DHT22;32398;49.112;8.598;2023-03-01T10:10:35;1.80;75.30
46139;DHT22;32398;49.112;8.598;2023-03-01T10:13:06;1.90;75.10
46139;DHT22;32398;49.112;8.598;2023-03-01T10:15:36;2.00;74.90
46139;DHT22;32398;49.112;8.598;2023-03-01T10:18:06;2.10;74.70
46139;DHT22;32398;49.112;8.598;2023-03-01T10:20:38;2.10;74.50
46139;DHT22;32398;49.112;8.598;2023-03-01T10:23:09;2.20;74.50
46139;DHT22;32398;49.112;8.598;2023-03-01T10:25:40;2.30;74.40
46139;DHT22;32398;49.112;8.598;2023-03-01T10:28:13;2.30;74.30
46139;DHT22;32398;49.112;8.598;2023-03-01T10:30:42;2.40;74.30
46139;DHT22;32398;49.112;8.598;2023-03-01T10:33:13;2.50;74.00
46139;DHT22;32398;49.112;8.598;2023-03-01T10:35:40;2.50;73.90
46139;DHT22;32398;49.112;8.598;2023-03-01T10:38:08;2.60;74.00
46139;DHT22;32398;49.112;8.598;2023-03-01T10:40:35;2.70;73.70
46139;DHT22;32398;49.112;8.598;2023-03-01T10:43:04;2.70;73.60
46139;DHT22;32398;49.112;8.598;2023-03-01T10:45:33;2.70;73.40
46139;DHT22;32398;49.112;8.598;2023-03-01T10:48:04;2.80;73.20
46139;DHT22;32398;49.112;8.598;2023-03-01T10:50:31;2.90;73.00
46139;DHT22;32398;49.112;8.598;2023-03-01T10:52:58;3.00;73.00
46139;DHT22;32398;49.112;8.598;2023-03-01T10:55:27;3.10;72.80
46139;DHT22;32398;49.112;8.598;2023-03-01T10:58:05;3.10;72.60
46139;DHT22;32398;49.112;8.598;2023-03-01T11:00:34;3.20;72.40
46139;DHT22;32398;49.112;8.598;2023-03-01T11:03:12;3.30;72.90
46139;DHT22;32398;49.112;8.598;2023-03-01T11:05:49;3.30;72.20
46139;DHT22;32398;49.112;8.598;2023-03-01T11:08:26;3.40;72.20
46139;DHT22;32398;49.112;8.598;2023-03-01T11:11:02;3.40;72.10
46139;DHT22;32398;49.112;8.598;2023-03-01T11:13:29;3.50;72.10
46139;DHT22;32398;49.112;8.598;2023-03-01T11:16:00;3.60;72.10
46139;DHT22;32398;49.112;8.598;2023-03-01T11:18:27;3.70;71.90
46139;DHT22;32398;49.112;8.598;2023-03-01T11:20:55;3.70;71.70
46139;DHT22;32398;49.112;8.598;2023-03-01T11:23:23;3.80;71.50
46139;DHT22;32398;49.112;8.598;2023-03-01T11:25:51;3.80;71.30
46139;DHT22;32398;49.112;8.598;2023-03-01T11:28:20;3.90;71.00
46139;DHT22;32398;49.112;8.598;2023-03-01T11:30:49;4.00;70.80
46139;DHT22;32398;49.112;8.598;2023-03-01T11:33:21;4.00;70.80
46139;DHT22;32398;49.112;8.598;2023-03-01T11:35:53;4.10;70.40
46139;DHT22;32398;49.112;8.598;2023-03-01T11:38:22;4.10;70.40
46139;DHT22;32398;49.112;8.598;2023-03-01T11:40:50;4.20;70.80
46139;DHT22;32398;49.112;8.598;2023-03-01T11:43:20;4.30;69.80
46139;DHT22;32398;49.112;8.598;2023-03-01T11:45:56;4.30;69.90
46139;DHT22;32398;49.112;8.598;2023-03-01T11:48:32;4.40;69.80
46139;DHT22;32398;49.112;8.598;2023-03-01T11:51:05;4.40;69.80
46139;DHT22;32398;49.112;8.598;2023-03-01T11:53:41;4.50;69.70
46139;DHT22;32398;49.112;8.598;2023-03-01T11:56:16;4.50;69.50
46139;DHT22;32398;49.112;8.598;2023-03-01T11:58:58;4.60;69.50
46139;DHT22;32398;49.112;8.598;2023-03-01T12:01:30;4.70;69.20
46139;DHT22;32398;49.112;8.598;2023-03-01T12:06:47;4.80;69.30
46139;DHT22;32398;49.112;8.598;2023-03-01T12:12:02;4.90;68.90
46139;DHT22;32398;49.112;8.598;2023-03-01T12:14:38;4.90;68.20
46139;DHT22;32398;49.112;8.598;2023-03-01T12:17:13;5.00;68.40
46139;DHT22;32398;49.112;8.598;2023-03-01T12:19:48;5.00;68.50
46139;DHT22;32398;49.112;8.598;2023-03-01T12:22:27;5.10;67.40
46139;DHT22;32398;49.112;8.598;2023-03-01T12:27:44;5.20;67.80
46139;DHT22;32398;49.112;8.598;2023-03-01T12:30:17;5.20;67.50
46139;DHT22;32398;49.112;8.598;2023-03-01T12:32:51;5.30;67.40
46139;DHT22;32398;49.112;8.598;2023-03-01T12:35:27;5.40;67.30
46139;DHT22;32398;49.112;8.598;2023-03-01T12:38:01;5.40;67.90
46139;DHT22;32398;49.112;8.598;2023-03-01T12:43:33;5.60;67.30
46139;DHT22;32398;49.112;8.598;2023-03-01T12:46:06;5.60;67.20
46139;DHT22;32398;49.112;8.598;2023-03-01T12:48:40;5.70;67.20
46139;DHT22;32398;49.112;8.598;2023-03-01T12:51:07;5.70;66.80
46139;DHT22;32398;49.112;8.598;2023-03-01T12:53:39;5.70;66.80
46139;DHT22;32398;49.112;8.598;2023-03-01T12:56:06;5.80;67.30
46139;DHT22;32398;49.112;8.598;2023-03-01T12:58:35;5.80;66.50
46139;DHT22;32398;49.112;8.598;2023-03-01T13:01:05;5.90;65.80
46139;DHT22;32398;49.112;8.598;2023-03-01T13:03:44;5.90;65.80
46139;DHT22;32398;49.112;8.598;2023-03-01T13:06:15;6.00;66.00
46139;DHT22;32398;49.112;8.598;2023-03-01T13:08:48;6.00;65.50
46139;DHT22;32398;49.112;8.598;2023-03-01T13:11:17;6.00;65.80
46139;DHT22;32398;49.112;8.598;2023-03-01T13:13:44;6.10;65.60
46139;DHT22;32398;49.112;8.598;2023-03-01T13:16:21;6.10;65.60
46139;DHT22;32398;49.112;8.598;2023-03-01T13:18:49;6.20;65.50
46139;DHT22;32398;49.112;8.598;2023-03-01T13:21:22;6.20;65.50
46139;DHT22;32398;49.112;8.598;2023-03-01T13:23:56;6.20;65.30
46139;DHT22;32398;49.112;8.598;2023-03-01T13:26:23;6.30;64.60
46139;DHT22;32398;49.112;8.598;2023-03-01T13:28:53;6.30;64.70
46139;DHT22;32398;49.112;8.598;2023-03-01T13:34:06;6.40;64.80
46139;DHT22;32398;49.112;8.598;2023-03-01T13:36:53;6.40;64.50
46139;DHT22;32398;49.112;8.598;2023-03-01T13:39:39;6.50;64.20
46139;DHT22;32398;49.112;8.598;2023-03-01T13:44:47;6.50;64.40
46139;DHT22;32398;49.112;8.598;2023-03-01T13:47:15;6.60;64.40
46139;DHT22;32398;49.112;8.598;2023-03-01T13:49:43;6.60;64.60
46139;DHT22;32398;49.112;8.598;2023-03-01T13:54:57;6.70;64.10
46139;DHT22;32398;49.112;8.598;2023-03-01T13:57:26;6.70;64.10
46139;DHT22;32398;49.112;8.598;2023-03-01T13:59:55;6.70;64.10
46139;DHT22;32398;49.112;8.598;2023-03-01T14:02:21;6.70;64.10
46139;DHT22;32398;49.112;8.598;2023-03-01T14:04:55;6.80;64.30
46139;DHT22;32398;49.112;8.598;2023-03-01T14:07:22;6.80;63.90
46139;DHT22;32398;49.112;8.598;2023-03-01T14:09:51;6.80;64.30
46139;DHT22;32398;49.112;8.598;2023-03-01T14:12:25;6.90;64.90
46139;DHT22;32398;49.112;8.598;2023-03-01T14:14:54;6.90;64.50
46139;DHT22;32398;49.112;8.598;2023-03-01T14:17:29;6.90;63.50
46139;DHT22;32398;49.112;8.598;2023-03-01T14:19:57;6.90;63.50
46139;DHT22;32398;49.112;8.598;2023-03-01T14:22:25;7.00;64.00
46139;DHT22;32398;49.112;8.598;2023-03-01T14:24:55;7.00;63.60
46139;DHT22;32398;49.112;8.598;2023-03-01T14:27:22;7.10;63.70
46139;DHT22;32398;49.112;8.598;2023-03-01T14:29:57;7.10;63.70
46139;DHT22;32398;49.112;8.598;2023-03-01T14:32:24;7.20;64.10
46139;DHT22;32398;49.112;8.598;2023-03-01T14:34:52;7.10;63.30
46139;DHT22;32398;49.112;8.598;2023-03-01T14:37:19;7.20;63.40
46139;DHT22;32398;49.112;8.598;2023-03-01T14:39:46;7.20;63.40
46139;DHT22;32398;49.112;8.598;2023-03-01T14:42:13;7.20;63.60
46139;DHT22;32398;49.112;8.598;2023-03-01T14:44:40;7.30;63.40
46139;DHT22;32398;49.112;8.598;2023-03-01T14:47:11;7.20;63.20
46139;DHT22;32398;49.112;8.598;2023-03-01T14:49:39;7.30;61.80
46139;DHT22;32398;49.112;8.598;2023-03-01T14:52:07;7.40;61.20
46139;DHT22;32398;49.112;8.598;2023-03-01T14:54:35;7.50;61.50
46139;DHT22;32398;49.112;8.598;2023-03-01T14:57:03;7.50;61.80
46139;DHT22;32398;49.112;8.598;2023-03-01T14:59:30;7.50;61.10
46139;DHT22;32398;49.112;8.598;2023-03-01T15:01:59;7.50;62.10
46139;DHT22;32398;49.112;8.598;2023-03-01T15:04:27;7.50;63.20
46139;DHT22;32398;49.112;8.598;2023-03-01T15:06:55;7.50;62.50
46139;DHT22;32398;49.112;8.598;2023-03-01T15:09:22;7.40;62.40
46139;DHT22;32398;49.112;8.598;2023-03-01T15:11:48;7.40;62.70
46139;DHT22;32398;49.112;8.598;2023-03-01T15:14:24;7.40;62.40
46139;DHT22;32398;49.112;8.598;2023-03-01T15:16:51;7.50;62.50
46139;DHT22;32398;49.112;8.598;2023-03-01T15:19:18;7.40;62.90
46139;DHT22;32398;49.112;8.598;2023-03-01T15:21:48;7.60;60.30
46139;DHT22;32398;49.112;8.598;2023-03-01T15:24:16;7.90;58.50
46139;DHT22;32398;49.112;8.598;2023-03-01T15:26:46;8.10;59.20
46139;DHT22;32398;49.112;8.598;2023-03-01T15:29:19;8.30;59.90
46139;DHT22;32398;49.112;8.598;2023-03-01T15:31:53;8.30;60.00
46139;DHT22;32398;49.112;8.598;2023-03-01T15:34:21;8.50;60.40
46139;DHT22;32398;49.112;8.598;2023-03-01T15:36:50;8.50;60.50
46139;DHT22;32398;49.112;8.598;2023-03-01T15:39:34;8.50;60.50
46139;DHT22;32398;49.112;8.598;2023-03-01T15:42:02;8.50;60.60
46139;DHT22;32398;49.112;8.598;2023-03-01T15:44:30;8.50;60.70
46139;DHT22;32398;49.112;8.598;2023-03-01T15:46:56;8.50;61.00
46139;DHT22;32398;49.112;8.598;2023-03-01T15:49:26;8.50;61.00
46139;DHT22;32398;49.112;8.598;2023-03-01T15:51:54;8.50;61.10
46139;DHT22;32398;49.112;8.598;2023-03-01T15:54:22;8.50;61.30
46139;DHT22;32398;49.112;8.598;2023-03-01T15:56:49;8.50;61.40
46139;DHT22;32398;49.112;8.598;2023-03-01T15:59:16;8.40;61.30
46139;DHT22;32398;49.112;8.598;2023-03-01T16:01:43;8.40;61.30
46139;DHT22;32398;49.112;8.598;2023-03-01T16:04:10;8.30;61.30
46139;DHT22;32398;49.112;8.598;2023-03-01T16:06:38;8.30;61.60
46139;DHT22;32398;49.112;8.598;2023-03-01T16:09:06;8.30;61.50
46139;DHT22;32398;49.112;8.598;2023-03-01T16:11:34;8.20;61.50
46139;DHT22;32398;49.112;8.598;2023-03-01T16:14:02;8.20;61.60